Currently 45°F in Hemet, California, USA
45°F
63°F / 37°F
calm
0.00"
Tuesday, January 22, 2019 8:11 PM PST

Hemet, California Weather Summary
Last 36 Hours

Temperature Winds Hourly Humidity Dewpoint
Time Report Norm Report Norm Max Gusts Precip. Rpt. Norm Rpt. Norm Pressure
1Tue 08:11 PM  45.1°F  52°F  calm  1 mph  none  0.00"  24%  51%  9°F  34°F  30.28"
Tue 08:00 PM  45.1°F  52°F  calm  1 mph  5 mph  0.00"  23%  51%  8°F  34°F  30.28"
Tue 07:00 PM  46.6°F  54°F  2 mph NE  1 mph  3 mph  0.00"  21%  50%  7°F  35°F  30.28"
Tue 06:00 PM  49.8°F  55°F  calm  1 mph  3 mph  0.00"  19%  48%  7°F  35°F  30.27"
Tue 05:00 PM  55.6°F  60°F  calm  1 mph  7 mph  0.00"  20%  43%  13°F  36°F  30.24"
Tue 04:00 PM  60.6°F  63°F  2 mph SW  2 mph  7 mph  0.00"  19%  38%  16°F  36°F  30.22"
Tue 03:00 PM  62.4°F  64°F  1 mph SW  2 mph  7 mph  0.00"  13%  36%  9°F  35°F  30.21"
2Tue 02:52 PM  63.0°F  64°F  calm  2 mph  6 mph  ----  16%  36%  14°F  35°F  30.21"
Tue 02:00 PM  61.0°F  64°F  calm  2 mph  8 mph  0.00"  20%  36%  18°F  35°F  30.20"
Tue 01:00 PM  58.3°F  63°F  3 mph SW  2 mph  8 mph  0.00"  27%  37%  23°F  35°F  30.21"
Tue 12:00 PM  55.8°F  61°F  calm  1 mph  5 mph  0.00"  32%  40%  25°F  36°F  30.22"
Tue 11:00 AM  53.6°F  59°F  calm  1 mph  5 mph  0.00"  37%  43%  27°F  36°F  30.24"
Tue 10:00 AM  49.8°F  57°F  calm  1 mph  5 mph  0.00"  45%  47%  28°F  36°F  30.23"
Tue 09:00 AM  45.9°F  55°F  calm  calm  1 mph  0.00"  43%  48%  24°F  35°F  30.22"
Tue 08:00 AM  40.3°F  51°F  calm  calm  none  0.00"  50%  51%  22°F  32°F  30.20"
Tue 07:00 AM  37.9°F  49°F  calm  1 mph  3 mph  0.00"  60%  52%  25°F  31°F  30.17"
Tue 06:00 AM  37.6°F  49°F  3 mph NE  1 mph  7 mph  0.00"  65%  52%  26°F  31°F  30.15"
3Tue 05:35 AM  37.2°F  49°F  calm  1 mph  none  ----  66%  52%  26°F  31°F  30.14"
Tue 05:00 AM  39.2°F  49°F  calm  1 mph  3 mph  0.00"  62%  52%  27°F  31°F  30.13"
Tue 04:00 AM  39.6°F  49°F  1 mph NE  1 mph  5 mph  0.00"  59%  52%  26°F  31°F  30.09"
Tue 03:00 AM  39.0°F  49°F  1 mph NE  1 mph  none  0.00"  62%  52%  27°F  32°F  30.08"
Tue 02:00 AM  40.3°F  50°F  calm  1 mph  none  0.00"  61%  51%  27°F  32°F  30.09"
Tue 01:00 AM  39.6°F  50°F  calm  1 mph  none  0.00"  63%  51%  27°F  32°F  30.07"
Tue 12:00 AM  40.8°F  50°F  calm  1 mph  none  0.00"  61%  52%  28°F  32°F  30.07"
Mon 11:00 PM  41.7°F  50°F  calm  1 mph  3 mph  0.00"  59%  52%  28°F  33°F  30.06"
Mon 10:00 PM  42.1°F  51°F  calm  1 mph  5 mph  0.00"  61%  51%  29°F  33°F  30.05"
Mon 09:00 PM  42.4°F  52°F  1 mph NE  1 mph  none  0.00"  61%  51%  29°F  33°F  30.03"
Mon 08:00 PM  43.2°F  53°F  calm  1 mph  none  0.00"  55%  50%  27°F  34°F  30.01"
Mon 07:00 PM  46.2°F  54°F  calm  1 mph  none  0.00"  49%  49%  27°F  34°F  30.00"
Mon 06:00 PM  49.1°F  56°F  calm  1 mph  8 mph  0.00"  41%  47%  25°F  35°F  29.98"
Mon 05:00 PM  52.9°F  60°F  6 mph W  1 mph  9 mph  0.00"  35%  42%  25°F  36°F  29.96"
Mon 04:00 PM  56.7°F  63°F  5 mph SW  1 mph  10 mph  0.00"  29%  37%  23°F  36°F  29.94"
Mon 03:00 PM  58.1°F  64°F  6 mph SW  1 mph  13 mph  0.00"  28%  35%  24°F  35°F  29.93"
Mon 02:00 PM  56.8°F  64°F  5 mph W  2 mph  14 mph  0.00"  28%  35%  23°F  35°F  29.94"
Mon 01:00 PM  55.9°F  63°F  6 mph SW  2 mph  10 mph  0.00"  31%  36%  24°F  35°F  29.95"
Mon 12:00 PM  53.2°F  62°F  calm  1 mph  10 mph  0.00"  46%  38%  32°F  35°F  29.98"
Mon 11:00 AM  52.5°F  60°F  3 mph SW  1 mph  8 mph  0.00"  54%  42%  36°F  36°F  30.00"
Mon 10:00 AM  51.6°F  57°F  calm  1 mph  5 mph  0.00"  65%  45%  40°F  35°F  30.01"
Mon 09:00 AM  49.5°F  55°F  calm  calm  none  0.00"  69%  46%  39°F  34°F  30.00"

  1. Current weather data. No green row appears if the current weather data is also the high or low for the current day.
  2. High temperature for the current day.
  3. Low temperature for the current day.

The Hemet weather pages are a service of WeatherCurrents. Hemet, California is located in the San Jacinto Valley, in western Riverside County, at the foot of the San Jacinto mountains.
Copyright ©Tue Jan 22 20:13:34 PST 2019  WeatherCurrents. All rights reserved. - Submit questions and comments - Privacy Policy

This page automatically refreshes every 10 minutes.